Spirit of New Zealand — ZMSV — position and weather

sailwx.info

Track history (hours):
 
Tides and Currents Weather Stations Pressure Air Temp Water Temp Dewpoint Dewpoint Depression Visibility Wind Speed Wind Dir Waves Ship Positions

Spirit of New Zealand

Last reported at 2017-Jul-23 04:52 UTC. Time now 2017-Aug-16 19:20 UTC.
Position S 36°22' E 174°53'.
Warning: this ship's position is 24 days out of date.

Length 45 m; draft 4.1 m.

Type: Passenger vessel. MMSI: 512201000.

Date/timePositionNaut miles runAvg speedWind from/ knotsBaromVisibWave heightAir tempDewpointWater temp
2017-Jul-23 04:52S 36°22' E 174°53'4 9.7
2017-Jul-23 04:30S 36°25' E 174°54'5 9.5
2017-Jul-23 04:00S 36°30' E 174°53'5 9.9
2017-Jul-23 03:30S 36°35' E 174°52'6 9.8
2017-Jul-23 02:52S 36°41' E 174°50'4 9.9
2017-Jul-23 02:26S 36°45' E 174°49'4 9.0
2017-Jul-23 02:00S 36°49' E 174°50'3 2.3
2017-Jul-23 00:31S 36°51' E 174°46'0 0.0
2017-Jul-23 00:30S 36°51' E 174°46'0 0.0
2017-Jul-23 00:00S 36°51' E 174°46'0 0.5
2017-Jul-22 23:30S 36°50' E 174°46'0 0.4
2017-Jul-22 22:54S 36°51' E 174°46'0 0.0
2017-Jul-22 22:30S 36°51' E 174°46'0 0.4
2017-Jul-22 22:00S 36°50' E 174°46'0 0.3
2017-Jul-22 21:30S 36°51' E 174°46'0 0.0
2017-Jul-22 21:00S 36°51' E 174°46'0 0.0
2017-Jul-22 20:31S 36°51' E 174°46'0 0.0
2017-Jul-22 19:55S 36°51' E 174°46'0 0.0
2017-Jul-22 19:25S 36°51' E 174°46'0 0.0
2017-Jul-22 19:01S 36°51' E 174°46'0 0.0
2017-Jul-22 18:31S 36°51' E 174°46'0 0.0
2017-Jul-22 18:01S 36°51' E 174°46'0 0.0
2017-Jul-22 17:31S 36°51' E 174°46'0 0.0
2017-Jul-22 17:01S 36°51' E 174°46'0 0.0
2017-Jul-22 16:31S 36°51' E 174°46'0 0.0
2017-Jul-22 16:01S 36°51' E 174°46'0 0.0
2017-Jul-22 09:25S 36°51' E 174°46'0 0.0
2017-Jul-22 09:01S 36°51' E 174°46'0 0.0
2017-Jul-22 08:31S 36°51' E 174°46'0 0.0
2017-Jul-22 08:01S 36°51' E 174°46'0 0.0
2017-Jul-22 07:31S 36°51' E 174°46'0 0.0
2017-Jul-22 07:01S 36°51' E 174°46'0 0.0
2017-Jul-22 06:31S 36°51' E 174°46'0 0.0
2017-Jul-22 06:01S 36°51' E 174°46'0 0.0
2017-Jul-22 05:31S 36°51' E 174°46'0 0.0
2017-Jul-22 05:01S 36°51' E 174°46'0 0.0
2017-Jul-22 04:31S 36°51' E 174°46'0 0.8
2017-Jul-22 04:00S 36°50' E 174°46'4 8.5
2017-Jul-22 03:30S 36°49' E 174°51'4 7.9
2017-Jul-22 02:57S 36°50' E 174°56'1 1.4
2017-Jul-22 02:11S 36°51' E 174°57'0 0.0
2017-Jul-21 22:47S 36°51' E 174°57'1 3.1
2017-Jul-21 22:30S 36°50' E 174°57'9 5.7
2017-Jul-21 20:59S 36°50' E 174°46'0 0.9
2017-Jul-21 20:30S 36°51' E 174°46'0 0.0
2017-Jul-21 19:36S 36°51' E 174°46'0 0.0
2017-Jul-21 19:30S 36°51' E 174°46'0 0.0
2017-Jul-21 19:00S 36°51' E 174°46'0 0.0
2017-Jul-21 18:30S 36°51' E 174°46'0 0.0
2017-Jul-21 18:00S 36°51' E 174°46'0 0.0
2017-Jul-21 17:30S 36°51' E 174°46'0 0.0
2017-Jul-21 17:00S 36°51' E 174°46'0 0.0
2017-Jul-21 16:30S 36°51' E 174°46'0 0.0
2017-Jul-21 16:00S 36°51' E 174°46'0 0.0
2017-Jul-21 15:30S 36°51' E 174°46'0 0.0
2017-Jul-21 15:00S 36°51' E 174°46'0 0.0
2017-Jul-21 14:24S 36°51' E 174°46'0 0.0
2017-Jul-21 13:54S 36°51' E 174°46'0 0.0
2017-Jul-21 12:24S 36°51' E 174°46'0 0.0
2017-Jul-21 09:30S 36°51' E 174°46'0 0.0
2017-Jul-21 09:00S 36°51' E 174°46'0 0.0
2017-Jul-21 08:30S 36°51' E 174°46'0 0.0
2017-Jul-21 08:00S 36°51' E 174°46'0 0.0
2017-Jul-21 07:30S 36°51' E 174°46'0 0.0
2017-Jul-21 07:00S 36°51' E 174°46'0 0.0
2017-Jul-21 06:24S 36°51' E 174°46'0 0.0
2017-Jul-21 06:00S 36°51' E 174°46'0 0.0
2017-Jul-21 05:24S 36°51' E 174°46'0 0.0
2017-Jul-21 05:00S 36°51' E 174°46'0 0.0
2017-Jul-21 04:30S 36°51' E 174°46'0 0.0
2017-Jul-21 04:00S 36°51' E 174°46'0 0.0
2017-Jul-21 03:24S 36°51' E 174°46'0 0.0
2017-Jul-21 03:00S 36°51' E 174°46'0 0.0
2017-Jul-21 02:30S 36°51' E 174°46'0 0.0
2017-Jul-21 02:00S 36°51' E 174°46'0 0.0
2017-Jul-21 01:30S 36°51' E 174°46'0 0.0
2017-Jul-21 01:00S 36°51' E 174°46'0 0.0
2017-Jul-20 21:06S 36°51' E 174°46'0 0.0
2017-Jul-20 20:42S 36°51' E 174°46'0 0.0
2017-Jul-20 20:24S 36°51' E 174°46'0 0.0
2017-Jul-20 19:54S 36°51' E 174°46'0 0.0
2017-Jul-20 19:30S 36°51' E 174°46'0 0.0
2017-Jul-20 18:48S 36°51' E 174°46'0 0.0
2017-Jul-20 18:24S 36°51' E 174°46'0 0.0
2017-Jul-20 18:00S 36°51' E 174°46'0 0.0
2017-Jul-20 17:30S 36°51' E 174°46'0 0.0
2017-Jul-20 17:00S 36°51' E 174°46'0 0.0
2017-Jul-20 16:30S 36°51' E 174°46'0 0.0
2017-Jul-20 16:00S 36°51' E 174°46'0 0.0
2017-Jul-20 15:30S 36°51' E 174°46'0 0.0
2017-Jul-20 14:00S 36°51' E 174°46'0 0.0
2017-Jul-20 07:00S 36°51' E 174°46'0 0.0
2017-Jul-20 06:12S 36°51' E 174°46'0 0.0
2017-Jul-20 06:00S 36°51' E 174°46'0 0.0
2017-Jul-20 05:30S 36°51' E 174°46'1 0.3
2017-Jul-20 02:43S 36°50' E 174°45'1 6.4
2017-Jul-20 02:30S 36°50' E 174°47'4 8.3
2017-Jul-20 01:59S 36°49' E 174°52'5 8.9
2017-Jul-20 01:29S 36°47' E 174°57'510.0
2017-Jul-20 01:00S 36°45' E 175°03'13 0.3
2017-Jul-18 04:04S 36°40' E 175°18'1 7.9
2017-Jul-18 03:55S 36°38' E 175°17'3 7.4
2017-Jul-18 03:30S 36°35' E 175°17'3 4.9
2017-Jul-18 02:57S 36°33' E 175°16'6 3.4
2017-Jul-18 01:14S 36°27' E 175°15'2 6.6
2017-Jul-18 01:00S 36°25' E 175°15'2 2.9
2017-Jul-18 00:28S 36°24' E 175°15'1 3.1
2017-Jul-18 00:00S 36°22' E 175°15'2 4.7
2017-Jul-17 23:30S 36°20' E 175°16'4 7.6
2017-Jul-17 22:57S 36°16' E 175°16'11 0.2
2017-Jul-15 22:10S 36°08' E 175°26'0 0.0
2017-Jul-15 06:48S 36°08' E 175°27'1 2.1
2017-Jul-15 06:21S 36°07' E 175°28'12 7.1
2017-Jul-15 04:42S 35°56' E 175°24'  
Track history (hours):
 
Tides and Currents Weather Stations Pressure Air Temp Water Temp Dewpoint Dewpoint Depression Visibility Wind Speed Wind Dir Waves Ship Positions

Spirit of New Zealand

Last reported at 2017-Jul-23 04:52 UTC. Time now 2017-Aug-16 19:20 UTC.
Position S 36°22' E 174°53'.
Warning: this ship's position is 24 days out of date.

Length 45 m; draft 4.1 m.

Type: Passenger vessel. MMSI: 512201000.

Date/timePositionNaut miles runAvg speedWind from/ knotsBaromVisibWave heightAir tempDewpointWater temp
2017-Jul-23 04:52S 36°22' E 174°53'4 9.7
2017-Jul-23 04:30S 36°25' E 174°54'5 9.5
2017-Jul-23 04:00S 36°30' E 174°53'5 9.9
2017-Jul-23 03:30S 36°35' E 174°52'6 9.8
2017-Jul-23 02:52S 36°41' E 174°50'4 9.9
2017-Jul-23 02:26S 36°45' E 174°49'4 9.0
2017-Jul-23 02:00S 36°49' E 174°50'3 2.3
2017-Jul-23 00:31S 36°51' E 174°46'0 0.0
2017-Jul-23 00:30S 36°51' E 174°46'0 0.0
2017-Jul-23 00:00S 36°51' E 174°46'0 0.5
2017-Jul-22 23:30S 36°50' E 174°46'0 0.4
2017-Jul-22 22:54S 36°51' E 174°46'0 0.0
2017-Jul-22 22:30S 36°51' E 174°46'0 0.4
2017-Jul-22 22:00S 36°50' E 174°46'0 0.3
2017-Jul-22 21:30S 36°51' E 174°46'0 0.0
2017-Jul-22 21:00S 36°51' E 174°46'0 0.0
2017-Jul-22 20:31S 36°51' E 174°46'0 0.0
2017-Jul-22 19:55S 36°51' E 174°46'0 0.0
2017-Jul-22 19:25S 36°51' E 174°46'0 0.0
2017-Jul-22 19:01S 36°51' E 174°46'0 0.0
2017-Jul-22 18:31S 36°51' E 174°46'0 0.0
2017-Jul-22 18:01S 36°51' E 174°46'0 0.0
2017-Jul-22 17:31S 36°51' E 174°46'0 0.0
2017-Jul-22 17:01S 36°51' E 174°46'0 0.0
2017-Jul-22 16:31S 36°51' E 174°46'0 0.0
2017-Jul-22 16:01S 36°51' E 174°46'0 0.0
2017-Jul-22 09:25S 36°51' E 174°46'0 0.0
2017-Jul-22 09:01S 36°51' E 174°46'0 0.0
2017-Jul-22 08:31S 36°51' E 174°46'0 0.0
2017-Jul-22 08:01S 36°51' E 174°46'0 0.0
2017-Jul-22 07:31S 36°51' E 174°46'0 0.0
2017-Jul-22 07:01S 36°51' E 174°46'0 0.0
2017-Jul-22 06:31S 36°51' E 174°46'0 0.0
2017-Jul-22 06:01S 36°51' E 174°46'0 0.0
2017-Jul-22 05:31S 36°51' E 174°46'0 0.0
2017-Jul-22 05:01S 36°51' E 174°46'0 0.0
2017-Jul-22 04:31S 36°51' E 174°46'0 0.8
2017-Jul-22 04:00S 36°50' E 174°46'4 8.5
2017-Jul-22 03:30S 36°49' E 174°51'4 7.9
2017-Jul-22 02:57S 36°50' E 174°56'1 1.4
2017-Jul-22 02:11S 36°51' E 174°57'0 0.0
2017-Jul-21 22:47S 36°51' E 174°57'1 3.1
2017-Jul-21 22:30S 36°50' E 174°57'9 5.7
2017-Jul-21 20:59S 36°50' E 174°46'0 0.9
2017-Jul-21 20:30S 36°51' E 174°46'0 0.0
2017-Jul-21 19:36S 36°51' E 174°46'0 0.0
2017-Jul-21 19:30S 36°51' E 174°46'0 0.0
2017-Jul-21 19:00S 36°51' E 174°46'0 0.0
2017-Jul-21 18:30S 36°51' E 174°46'0 0.0
2017-Jul-21 18:00S 36°51' E 174°46'0 0.0
2017-Jul-21 17:30S 36°51' E 174°46'0 0.0
2017-Jul-21 17:00S 36°51' E 174°46'0 0.0
2017-Jul-21 16:30S 36°51' E 174°46'0 0.0
2017-Jul-21 16:00S 36°51' E 174°46'0 0.0
2017-Jul-21 15:30S 36°51' E 174°46'0 0.0
2017-Jul-21 15:00S 36°51' E 174°46'0 0.0
2017-Jul-21 14:24S 36°51' E 174°46'0 0.0
2017-Jul-21 13:54S 36°51' E 174°46'0 0.0
2017-Jul-21 12:24S 36°51' E 174°46'0 0.0
2017-Jul-21 09:30S 36°51' E 174°46'0 0.0
2017-Jul-21 09:00S 36°51' E 174°46'0 0.0
2017-Jul-21 08:30S 36°51' E 174°46'0 0.0
2017-Jul-21 08:00S 36°51' E 174°46'0 0.0
2017-Jul-21 07:30S 36°51' E 174°46'0 0.0
2017-Jul-21 07:00S 36°51' E 174°46'0 0.0
2017-Jul-21 06:24S 36°51' E 174°46'0 0.0
2017-Jul-21 06:00S 36°51' E 174°46'0 0.0
2017-Jul-21 05:24S 36°51' E 174°46'0 0.0
2017-Jul-21 05:00S 36°51' E 174°46'0 0.0
2017-Jul-21 04:30S 36°51' E 174°46'0 0.0
2017-Jul-21 04:00S 36°51' E 174°46'0 0.0
2017-Jul-21 03:24S 36°51' E 174°46'0 0.0
2017-Jul-21 03:00S 36°51' E 174°46'0 0.0
2017-Jul-21 02:30S 36°51' E 174°46'0 0.0
2017-Jul-21 02:00S 36°51' E 174°46'0 0.0
2017-Jul-21 01:30S 36°51' E 174°46'0 0.0
2017-Jul-21 01:00S 36°51' E 174°46'0 0.0
2017-Jul-20 21:06S 36°51' E 174°46'0 0.0
2017-Jul-20 20:42S 36°51' E 174°46'0 0.0
2017-Jul-20 20:24S 36°51' E 174°46'0 0.0
2017-Jul-20 19:54S 36°51' E 174°46'0 0.0
2017-Jul-20 19:30S 36°51' E 174°46'0 0.0
2017-Jul-20 18:48S 36°51' E 174°46'0 0.0
2017-Jul-20 18:24S 36°51' E 174°46'0 0.0
2017-Jul-20 18:00S 36°51' E 174°46'0 0.0
2017-Jul-20 17:30S 36°51' E 174°46'0 0.0
2017-Jul-20 17:00S 36°51' E 174°46'0 0.0
2017-Jul-20 16:30S 36°51' E 174°46'0 0.0
2017-Jul-20 16:00S 36°51' E 174°46'0 0.0
2017-Jul-20 15:30S 36°51' E 174°46'0 0.0
2017-Jul-20 14:00S 36°51' E 174°46'0 0.0
2017-Jul-20 07:00S 36°51' E 174°46'0 0.0
2017-Jul-20 06:12S 36°51' E 174°46'0 0.0
2017-Jul-20 06:00S 36°51' E 174°46'0 0.0
2017-Jul-20 05:30S 36°51' E 174°46'1 0.3
2017-Jul-20 02:43S 36°50' E 174°45'1 6.4
2017-Jul-20 02:30S 36°50' E 174°47'4 8.3
2017-Jul-20 01:59S 36°49' E 174°52'5 8.9
2017-Jul-20 01:29S 36°47' E 174°57'510.0
2017-Jul-20 01:00S 36°45' E 175°03'13 0.3
2017-Jul-18 04:04S 36°40' E 175°18'1 7.9
2017-Jul-18 03:55S 36°38' E 175°17'3 7.4
2017-Jul-18 03:30S 36°35' E 175°17'3 4.9
2017-Jul-18 02:57S 36°33' E 175°16'6 3.4
2017-Jul-18 01:14S 36°27' E 175°15'2 6.6
2017-Jul-18 01:00S 36°25' E 175°15'2 2.9
2017-Jul-18 00:28S 36°24' E 175°15'1 3.1
2017-Jul-18 00:00S 36°22' E 175°15'2 4.7
2017-Jul-17 23:30S 36°20' E 175°16'4 7.6
2017-Jul-17 22:57S 36°16' E 175°16'11 0.2
2017-Jul-15 22:10S 36°08' E 175°26'0 0.0
2017-Jul-15 06:48S 36°08' E 175°27'1 2.1
2017-Jul-15 06:21S 36°07' E 175°28'12 7.1
2017-Jul-15 04:42S 35°56' E 175°24'  

Dump ship's entire track history